Main page
METAR-TAF:

METAR-TAF

Airports :

Ibiza Airport

Ibiza, Spain

latitude: 38-52N, longitude: 001-23E, elevation: 7 m

Current weather observation

The report was made 23 minutes ago, at 00:30 UTC
Wind 14 kt from the West with gusts up to 27 kt
Temperature 17°C
Humidity 42%
Pressure 1018 hPa
Visibility 10 km or more
no clouds below 1500 m and no cumulonimbus

METAR: LEIB 260030Z 28014G27KT CAVOK 17/04 Q1018 NOSIG

Time: 02:53 (00:53 UTC)

Forecast

The report was made 4 hours and 53 minutes ago, at 20:00 UTC
Forecast valid from 25 at 21 UTC to 26 at 21 UTC
Wind 10 kt from the West/Northwest
Visibility 10 km or more
Few clouds at a height of 2000 ft
Becoming
from 26 at 12 UTC to 26 at 14 UTC
Wind 6 kt from the Southwest

TAF: LEIB 252000Z 2521/2621 29010KT 9999 FEW020 TX18/2612Z TN11/2606Z BECMG 2612/2614 22006KT

Weather observations and forecasts of more than 4000 airports (METAR and TAF reports).

The available stations are represented by yellow and red dots on the map.

Hover mouse over dot to see the name of the station.

Then click to see weather observations and forecasts.

To change the map : click on the green buttons with a black cross to zoom in, on the green button with a dash to zoom out, or on the green arrows for adjacent maps.


METAR-TAF: